sensor_id;sensor_type;location;lat;lon;timestamp;pressure;altitude;pressure_sealevel;temperature;humidity
49943;BME280;36011;53.362;58.948;2023-09-19T00:00:28;96909.88;;;10.62;72.70
49943;BME280;36011;53.362;58.948;2023-09-19T00:03:32;96901.63;;;10.54;73.13
49943;BME280;36011;53.362;58.948;2023-09-19T00:06:36;96906.25;;;10.50;73.05
49943;BME280;36011;53.362;58.948;2023-09-19T00:09:40;96909.34;;;10.43;73.22
49943;BME280;36011;53.362;58.948;2023-09-19T00:12:47;96911.63;;;10.34;73.60
49943;BME280;36011;53.362;58.948;2023-09-19T00:15:48;96903.19;;;10.29;73.45
49943;BME280;36011;53.362;58.948;2023-09-19T00:18:49;96896.59;;;10.37;73.46
49943;BME280;36011;53.362;58.948;2023-09-19T00:21:53;96898.47;;;10.20;73.84
49943;BME280;36011;53.362;58.948;2023-09-19T00:25:00;96904.41;;;10.09;74.25
49943;BME280;36011;53.362;58.948;2023-09-19T00:28:02;96901.72;;;9.97;74.33
49943;BME280;36011;53.362;58.948;2023-09-19T00:31:03;96897.09;;;9.86;74.76
49943;BME280;36011;53.362;58.948;2023-09-19T00:34:11;96897.38;;;9.81;74.89
49943;BME280;36011;53.362;58.948;2023-09-19T00:37:15;96885.38;;;9.77;74.83
49943;BME280;36011;53.362;58.948;2023-09-19T00:40:23;96884.06;;;9.70;75.31
49943;BME280;36011;53.362;58.948;2023-09-19T00:43:25;96884.63;;;9.61;75.59
49943;BME280;36011;53.362;58.948;2023-09-19T00:46:31;96884.81;;;9.58;75.87
49943;BME280;36011;53.362;58.948;2023-09-19T00:49:36;96883.66;;;9.48;76.31
49943;BME280;36011;53.362;58.948;2023-09-19T00:52:42;96846.31;;;9.28;76.38
49943;BME280;36011;53.362;58.948;2023-09-19T00:55:46;96874.47;;;9.40;76.51
49943;BME280;36011;53.362;58.948;2023-09-19T00:58:48;96875.00;;;9.31;76.81
49943;BME280;36011;53.362;58.948;2023-09-19T01:01:52;96871.16;;;9.37;76.84
49943;BME280;36011;53.362;58.948;2023-09-19T01:04:58;96870.81;;;9.29;77.36
49943;BME280;36011;53.362;58.948;2023-09-19T01:08:03;96861.72;;;9.34;77.13
49943;BME280;36011;53.362;58.948;2023-09-19T01:11:30;96869.31;;;9.39;77.45
49943;BME280;36011;53.362;58.948;2023-09-19T01:14:49;96858.72;;;9.26;77.68
49943;BME280;36011;53.362;58.948;2023-09-19T01:18:35;96867.03;;;9.18;78.36
49943;BME280;36011;53.362;58.948;2023-09-19T01:28:51;96864.25;;;8.91;78.30
49943;BME280;36011;53.362;58.948;2023-09-19T01:31:59;96862.91;;;8.84;78.13
49943;BME280;36011;53.362;58.948;2023-09-19T01:35:04;96864.78;;;8.82;78.30
49943;BME280;36011;53.362;58.948;2023-09-19T01:38:09;96857.75;;;8.83;78.24
49943;BME280;36011;53.362;58.948;2023-09-19T01:41:21;96860.31;;;8.84;77.89
49943;BME280;36011;53.362;58.948;2023-09-19T01:44:44;96849.88;;;8.83;77.46
49943;BME280;36011;53.362;58.948;2023-09-19T01:47:52;96862.78;;;9.02;77.71
49943;BME280;36011;53.362;58.948;2023-09-19T01:51:05;96864.47;;;9.17;77.66
49943;BME280;36011;53.362;58.948;2023-09-19T01:54:10;96859.00;;;9.36;77.36
49943;BME280;36011;53.362;58.948;2023-09-19T01:57:40;96865.84;;;9.38;76.76
49943;BME280;36011;53.362;58.948;2023-09-19T02:00:47;96858.16;;;9.35;76.87
49943;BME280;36011;53.362;58.948;2023-09-19T02:03:50;96855.53;;;9.50;76.56
49943;BME280;36011;53.362;58.948;2023-09-19T02:06:56;96854.13;;;9.44;76.75
49943;BME280;36011;53.362;58.948;2023-09-19T02:10:01;96861.72;;;9.49;76.64
49943;BME280;36011;53.362;58.948;2023-09-19T02:13:07;96855.53;;;9.50;76.61
49943;BME280;36011;53.362;58.948;2023-09-19T02:16:11;96868.84;;;9.47;76.72
49943;BME280;36011;53.362;58.948;2023-09-19T02:19:14;96865.19;;;9.49;76.68
49943;BME280;36011;53.362;58.948;2023-09-19T02:22:20;96866.88;;;9.50;76.93
49943;BME280;36011;53.362;58.948;2023-09-19T02:25:26;96874.13;;;9.61;76.82
49943;BME280;36011;53.362;58.948;2023-09-19T02:28:31;96869.03;;;9.72;76.53
49943;BME280;36011;53.362;58.948;2023-09-19T02:31:36;96866.78;;;9.80;76.42
49943;BME280;36011;53.362;58.948;2023-09-19T02:34:41;96865.47;;;9.87;75.91
49943;BME280;36011;53.362;58.948;2023-09-19T02:37:46;96866.59;;;9.98;75.87
49943;BME280;36011;53.362;58.948;2023-09-19T02:40:47;96857.19;;;10.08;75.68
49943;BME280;36011;53.362;58.948;2023-09-19T02:43:48;96863.34;;;10.21;75.19
49943;BME280;36011;53.362;58.948;2023-09-19T02:46:51;96863.66;;;10.31;74.85
49943;BME280;36011;53.362;58.948;2023-09-19T02:49:54;96863.50;;;10.47;74.64
49943;BME280;36011;53.362;58.948;2023-09-19T02:52:56;96867.16;;;10.71;73.87
49943;BME280;36011;53.362;58.948;2023-09-19T02:56:01;96869.78;;;11.11;72.55
49943;BME280;36011;53.362;58.948;2023-09-19T02:59:05;96860.31;;;11.34;71.66
49943;BME280;36011;53.362;58.948;2023-09-19T03:02:09;96859.19;;;11.51;71.00
49943;BME280;36011;53.362;58.948;2023-09-19T03:05:12;96859.28;;;11.62;70.56
49943;BME280;36011;53.362;58.948;2023-09-19T03:08:14;96855.72;;;11.63;70.40
49943;BME280;36011;53.362;58.948;2023-09-19T03:11:18;96864.34;;;11.65;70.53
49943;BME280;36011;53.362;58.948;2023-09-19T03:14:24;96866.03;;;11.66;70.63
49943;BME280;36011;53.362;58.948;2023-09-19T03:17:28;96868.16;;;11.61;70.73
49943;BME280;36011;53.362;58.948;2023-09-19T03:20:33;96870.44;;;11.66;70.53
49943;BME280;36011;53.362;58.948;2023-09-19T03:23:38;96858.84;;;11.68;70.79
49943;BME280;36011;53.362;58.948;2023-09-19T03:26:39;96869.59;;;11.65;70.90
49943;BME280;36011;53.362;58.948;2023-09-19T03:29:50;96867.19;;;11.62;71.04
49943;BME280;36011;53.362;58.948;2023-09-19T03:32:52;96871.53;;;11.63;71.38
49943;BME280;36011;53.362;58.948;2023-09-19T03:35:56;96862.97;;;11.73;71.21
49943;BME280;36011;53.362;58.948;2023-09-19T03:39:01;96854.94;;;11.74;71.52
49943;BME280;36011;53.362;58.948;2023-09-19T03:42:07;96861.00;;;11.89;71.51
49943;BME280;36011;53.362;58.948;2023-09-19T03:45:11;96859.50;;;11.98;71.31
49943;BME280;36011;53.362;58.948;2023-09-19T03:48:13;96855.28;;;11.95;71.52
49943;BME280;36011;53.362;58.948;2023-09-19T03:51:16;96863.16;;;12.08;71.36
49943;BME280;36011;53.362;58.948;2023-09-19T03:54:18;96848.69;;;12.13;70.63
49943;BME280;36011;53.362;58.948;2023-09-19T03:57:21;96857.72;;;12.35;70.34
49943;BME280;36011;53.362;58.948;2023-09-19T04:00:24;96855.13;;;12.46;69.57
49943;BME280;36011;53.362;58.948;2023-09-19T04:03:30;96857.88;;;12.69;68.97
49943;BME280;36011;53.362;58.948;2023-09-19T04:06:37;96842.09;;;12.80;68.13
49943;BME280;36011;53.362;58.948;2023-09-19T04:09:40;96851.38;;;12.86;67.64
49943;BME280;36011;53.362;58.948;2023-09-19T04:12:54;96861.84;;;12.98;66.78
49943;BME280;36011;53.362;58.948;2023-09-19T04:15:55;96859.94;;;13.00;67.60
49943;BME280;36011;53.362;58.948;2023-09-19T04:18:57;96855.41;;;13.14;67.38
49943;BME280;36011;53.362;58.948;2023-09-19T04:21:58;96851.09;;;13.24;66.93
49943;BME280;36011;53.362;58.948;2023-09-19T04:25:00;96861.63;;;13.37;67.08
49943;BME280;36011;53.362;58.948;2023-09-19T04:28:03;96866.91;;;13.37;67.36
49943;BME280;36011;53.362;58.948;2023-09-19T04:31:05;96859.56;;;13.29;67.62
49943;BME280;36011;53.362;58.948;2023-09-19T04:34:11;96868.84;;;13.46;67.67
49943;BME280;36011;53.362;58.948;2023-09-19T04:37:18;96881.00;;;13.60;67.29
49943;BME280;36011;53.362;58.948;2023-09-19T04:40:19;96879.09;;;13.62;67.58
49943;BME280;36011;53.362;58.948;2023-09-19T04:43:23;96879.56;;;13.67;67.24
49943;BME280;36011;53.362;58.948;2023-09-19T04:46:27;96882.22;;;13.78;66.87
49943;BME280;36011;53.362;58.948;2023-09-19T04:49:36;96874.28;;;13.78;66.52
49943;BME280;36011;53.362;58.948;2023-09-19T04:52:42;96881.63;;;13.97;65.72
49943;BME280;36011;53.362;58.948;2023-09-19T04:55:46;96877.06;;;13.99;65.58
49943;BME280;36011;53.362;58.948;2023-09-19T04:58:52;96875.03;;;14.14;65.37
49943;BME280;36011;53.362;58.948;2023-09-19T05:01:55;96871.63;;;14.23;64.67
49943;BME280;36011;53.362;58.948;2023-09-19T05:04:58;96869.94;;;14.45;64.34
49943;BME280;36011;53.362;58.948;2023-09-19T05:08:06;96880.53;;;14.56;63.91
49943;BME280;36011;53.362;58.948;2023-09-19T05:11:10;96884.09;;;14.66;63.46
49943;BME280;36011;53.362;58.948;2023-09-19T05:14:11;96879.97;;;14.85;62.87
49943;BME280;36011;53.362;58.948;2023-09-19T05:17:13;96881.34;;;15.00;62.07
49943;BME280;36011;53.362;58.948;2023-09-19T05:20:20;96869.47;;;15.15;61.18
49943;BME280;36011;53.362;58.948;2023-09-19T05:23:33;96876.41;;;15.48;60.15
49943;BME280;36011;53.362;58.948;2023-09-19T05:26:34;96875.19;;;15.74;59.70
49943;BME280;36011;53.362;58.948;2023-09-19T05:29:38;96878.28;;;19.06;52.09
49943;BME280;36011;53.362;58.948;2023-09-19T05:32:40;96881.13;;;22.97;42.74
49943;BME280;36011;53.362;58.948;2023-09-19T05:35:45;96892.41;;;26.17;37.49
49943;BME280;36011;53.362;58.948;2023-09-19T05:38:52;96887.69;;;29.33;32.80
49943;BME280;36011;53.362;58.948;2023-09-19T05:41:57;96885.78;;;31.86;28.60
49943;BME280;36011;53.362;58.948;2023-09-19T05:44:58;96884.28;;;33.53;26.39
49943;BME280;36011;53.362;58.948;2023-09-19T05:48:10;96887.00;;;34.55;24.15
49943;BME280;36011;53.362;58.948;2023-09-19T05:51:19;96879.34;;;34.96;22.46
49943;BME280;36011;53.362;58.948;2023-09-19T05:54:23;96877.56;;;34.84;22.20
49943;BME280;36011;53.362;58.948;2023-09-19T05:57:24;96867.47;;;35.56;21.87
49943;BME280;36011;53.362;58.948;2023-09-19T06:00:26;96872.19;;;36.30;20.65
49943;BME280;36011;53.362;58.948;2023-09-19T06:03:38;96863.06;;;37.15;19.44
49943;BME280;36011;53.362;58.948;2023-09-19T06:06:41;96869.44;;;37.46;19.18
49943;BME280;36011;53.362;58.948;2023-09-19T06:09:46;96860.72;;;37.69;18.18
49943;BME280;36011;53.362;58.948;2023-09-19T06:12:50;96864.84;;;37.82;18.20
49943;BME280;36011;53.362;58.948;2023-09-19T06:15:56;96861.00;;;37.83;18.49
49943;BME280;36011;53.362;58.948;2023-09-19T06:19:00;96854.97;;;38.07;17.60
49943;BME280;36011;53.362;58.948;2023-09-19T06:22:04;96863.19;;;38.43;17.71
49943;BME280;36011;53.362;58.948;2023-09-19T06:25:05;96860.69;;;38.41;17.38
49943;BME280;36011;53.362;58.948;2023-09-19T06:28:10;96858.22;;;38.45;17.22
49943;BME280;36011;53.362;58.948;2023-09-19T06:31:15;96855.78;;;39.13;17.13
49943;BME280;36011;53.362;58.948;2023-09-19T06:34:19;96848.69;;;40.49;15.99
49943;BME280;36011;53.362;58.948;2023-09-19T06:37:23;96841.78;;;41.76;14.78
49943;BME280;36011;53.362;58.948;2023-09-19T06:40:25;96848.72;;;43.49;14.17
49943;BME280;36011;53.362;58.948;2023-09-19T06:43:31;96831.72;;;42.78;14.18
49943;BME280;36011;53.362;58.948;2023-09-19T06:46:37;96826.06;;;42.69;13.70
49943;BME280;36011;53.362;58.948;2023-09-19T06:49:46;96828.31;;;43.45;12.71
49943;BME280;36011;53.362;58.948;2023-09-19T06:52:52;96833.25;;;42.10;13.06
49943;BME280;36011;53.362;58.948;2023-09-19T06:55:56;96816.84;;;39.74;15.14
49943;BME280;36011;53.362;58.948;2023-09-19T06:58:58;96821.75;;;41.32;14.43
49943;BME280;36011;53.362;58.948;2023-09-19T07:02:00;96837.38;;;44.49;12.85
49943;BME280;36011;53.362;58.948;2023-09-19T07:05:04;96826.34;;;44.04;12.57
49943;BME280;36011;53.362;58.948;2023-09-19T07:08:10;96820.25;;;43.35;12.62
49943;BME280;36011;53.362;58.948;2023-09-19T07:11:16;96826.53;;;43.26;12.26
49943;BME280;36011;53.362;58.948;2023-09-19T07:14:17;96814.38;;;43.72;12.50
49943;BME280;36011;53.362;58.948;2023-09-19T07:17:22;96812.00;;;43.57;11.83
49943;BME280;36011;53.362;58.948;2023-09-19T07:20:29;96806.44;;;42.24;12.86
49943;BME280;36011;53.362;58.948;2023-09-19T07:23:36;96794.84;;;40.81;13.83
49943;BME280;36011;53.362;58.948;2023-09-19T07:26:42;96791.19;;;40.86;14.16
49943;BME280;36011;53.362;58.948;2023-09-19T07:29:49;96793.31;;;41.13;14.03
49943;BME280;36011;53.362;58.948;2023-09-19T07:32:55;96800.06;;;40.34;14.23
49943;BME280;36011;53.362;58.948;2023-09-19T07:35:59;96798.13;;;39.77;14.93
49943;BME280;36011;53.362;58.948;2023-09-19T07:39:01;96799.25;;;38.81;15.48
49943;BME280;36011;53.362;58.948;2023-09-19T07:42:12;96792.03;;;37.90;16.31
49943;BME280;36011;53.362;58.948;2023-09-19T07:45:21;96798.72;;;38.74;15.52
49943;BME280;36011;53.362;58.948;2023-09-19T07:48:24;96792.00;;;39.45;15.13
49943;BME280;36011;53.362;58.948;2023-09-19T07:51:30;96781.72;;;38.67;15.65
49943;BME280;36011;53.362;58.948;2023-09-19T07:54:34;96787.41;;;38.91;15.30
49943;BME280;36011;53.362;58.948;2023-09-19T07:57:39;96777.63;;;39.88;14.70
49943;BME280;36011;53.362;58.948;2023-09-19T08:00:44;96770.78;;;40.14;14.38
49943;BME280;36011;53.362;58.948;2023-09-19T08:03:47;96774.28;;;41.30;13.68
49943;BME280;36011;53.362;58.948;2023-09-19T08:06:49;96780.44;;;43.31;12.55
49943;BME280;36011;53.362;58.948;2023-09-19T08:09:57;96769.97;;;44.18;11.47
49943;BME280;36011;53.362;58.948;2023-09-19T08:13:02;96763.00;;;44.69;11.90
49943;BME280;36011;53.362;58.948;2023-09-19T08:16:08;96754.81;;;43.61;12.01
49943;BME280;36011;53.362;58.948;2023-09-19T08:19:13;96760.38;;;43.11;12.27
49943;BME280;36011;53.362;58.948;2023-09-19T08:22:18;96743.97;;;40.44;14.27
49943;BME280;36011;53.362;58.948;2023-09-19T08:25:20;96739.47;;;38.37;16.11
49943;BME280;36011;53.362;58.948;2023-09-19T08:28:24;96735.22;;;37.70;16.38
49943;BME280;36011;53.362;58.948;2023-09-19T08:31:28;96740.16;;;37.78;16.31
49943;BME280;36011;53.362;58.948;2023-09-19T08:34:31;96742.88;;;37.17;16.98
49943;BME280;36011;53.362;58.948;2023-09-19T08:37:35;96737.97;;;37.75;16.07
49943;BME280;36011;53.362;58.948;2023-09-19T08:40:39;96725.91;;;37.50;16.45
49943;BME280;36011;53.362;58.948;2023-09-19T08:43:47;96726.97;;;36.25;16.99
49943;BME280;36011;53.362;58.948;2023-09-19T08:46:55;96715.94;;;34.76;18.23
49943;BME280;36011;53.362;58.948;2023-09-19T08:50:09;96714.47;;;33.13;19.17
49943;BME280;36011;53.362;58.948;2023-09-19T08:53:26;96712.66;;;31.03;21.51
49943;BME280;36011;53.362;58.948;2023-09-19T08:56:33;96722.13;;;29.35;23.20
49943;BME280;36011;53.362;58.948;2023-09-19T08:59:39;96707.53;;;27.89;25.28
49943;BME280;36011;53.362;58.948;2023-09-19T09:02:49;96701.66;;;26.46;27.62
49943;BME280;36011;53.362;58.948;2023-09-19T09:05:56;96710.75;;;24.77;29.78
49943;BME280;36011;53.362;58.948;2023-09-19T09:08:59;96710.00;;;23.66;31.07
49943;BME280;36011;53.362;58.948;2023-09-19T09:12:04;96704.13;;;22.80;33.26
49943;BME280;36011;53.362;58.948;2023-09-19T09:15:06;96719.03;;;21.97;35.18
49943;BME280;36011;53.362;58.948;2023-09-19T09:18:12;96717.19;;;21.34;36.63
49943;BME280;36011;53.362;58.948;2023-09-19T09:21:14;96733.28;;;20.69;39.06
49943;BME280;36011;53.362;58.948;2023-09-19T09:24:29;96727.03;;;19.77;42.27
49943;BME280;36011;53.362;58.948;2023-09-19T09:27:33;96730.16;;;18.94;46.15
49943;BME280;36011;53.362;58.948;2023-09-19T09:30:40;96733.66;;;18.23;50.09
49943;BME280;36011;53.362;58.948;2023-09-19T09:33:53;96738.63;;;17.53;52.14
49943;BME280;36011;53.362;58.948;2023-09-19T09:36:55;96727.28;;;17.03;53.59
49943;BME280;36011;53.362;58.948;2023-09-19T09:40:03;96749.94;;;17.08;53.85
49943;BME280;36011;53.362;58.948;2023-09-19T09:46:29;96749.94;;;16.30;60.48
49943;BME280;36011;53.362;58.948;2023-09-19T09:49:57;96733.41;;;16.07;61.16
49943;BME280;36011;53.362;58.948;2023-09-19T09:53:23;96730.09;;;16.34;65.46
49943;BME280;36011;53.362;58.948;2023-09-19T09:56:31;96723.41;;;16.49;63.23
49943;BME280;36011;53.362;58.948;2023-09-19T09:59:57;96724.53;;;16.76;65.47
49943;BME280;36011;53.362;58.948;2023-09-19T10:03:23;96714.84;;;16.94;62.49
49943;BME280;36011;53.362;58.948;2023-09-19T10:06:41;96707.06;;;17.30;61.98
49943;BME280;36011;53.362;58.948;2023-09-19T10:09:47;96701.63;;;17.59;59.98
49943;BME280;36011;53.362;58.948;2023-09-19T10:12:55;96711.28;;;17.98;58.69
49943;BME280;36011;53.362;58.948;2023-09-19T10:16:06;96709.41;;;18.44;57.22
49943;BME280;36011;53.362;58.948;2023-09-19T10:19:24;96701.84;;;18.93;56.62
49943;BME280;36011;53.362;58.948;2023-09-19T10:22:34;96704.13;;;19.40;55.13
49943;BME280;36011;53.362;58.948;2023-09-19T10:25:41;96695.09;;;19.67;54.64
49943;BME280;36011;53.362;58.948;2023-09-19T10:28:49;96696.72;;;19.94;54.21
49943;BME280;36011;53.362;58.948;2023-09-19T10:31:52;96698.44;;;20.11;53.38
49943;BME280;36011;53.362;58.948;2023-09-19T10:34:57;96692.94;;;20.21;53.15
49943;BME280;36011;53.362;58.948;2023-09-19T10:38:01;96699.28;;;20.20;52.49
49943;BME280;36011;53.362;58.948;2023-09-19T10:41:06;96693.44;;;20.16;52.83
49943;BME280;36011;53.362;58.948;2023-09-19T10:44:08;96691.09;;;20.13;52.64
49943;BME280;36011;53.362;58.948;2023-09-19T10:47:10;96695.94;;;20.26;52.30
49943;BME280;36011;53.362;58.948;2023-09-19T10:50:22;96711.69;;;20.46;50.77
49943;BME280;36011;53.362;58.948;2023-09-19T10:53:29;96708.41;;;20.76;50.78
49943;BME280;36011;53.362;58.948;2023-09-19T10:56:38;96709.34;;;21.33;50.22
49943;BME280;36011;53.362;58.948;2023-09-19T11:00:02;96708.91;;;22.08;48.93
49943;BME280;36011;53.362;58.948;2023-09-19T11:03:24;96709.19;;;22.52;47.05
49943;BME280;36011;53.362;58.948;2023-09-19T11:06:34;96710.69;;;22.78;46.52
49943;BME280;36011;53.362;58.948;2023-09-19T11:09:53;96711.56;;;22.70;44.84
49943;BME280;36011;53.362;58.948;2023-09-19T11:12:58;96709.44;;;22.42;44.64
49943;BME280;36011;53.362;58.948;2023-09-19T11:16:04;96699.06;;;22.39;44.13
49943;BME280;36011;53.362;58.948;2023-09-19T11:19:06;96704.13;;;22.57;43.64
49943;BME280;36011;53.362;58.948;2023-09-19T11:22:08;96692.25;;;22.75;43.17
49943;BME280;36011;53.362;58.948;2023-09-19T11:28:42;96702.47;;;22.56;42.94
49943;BME280;36011;53.362;58.948;2023-09-19T11:31:44;96691.75;;;22.56;42.57
49943;BME280;36011;53.362;58.948;2023-09-19T11:34:47;96693.53;;;22.64;42.67
49943;BME280;36011;53.362;58.948;2023-09-19T11:44:33;96699.16;;;22.23;43.19
49943;BME280;36011;53.362;58.948;2023-09-19T11:47:35;96691.25;;;21.90;44.27
49943;BME280;36011;53.362;58.948;2023-09-19T11:50:42;96700.09;;;21.60;43.76
49943;BME280;36011;53.362;58.948;2023-09-19T11:53:48;96702.16;;;21.25;44.42
49943;BME280;36011;53.362;58.948;2023-09-19T11:56:50;96685.16;;;20.85;45.24
49943;BME280;36011;53.362;58.948;2023-09-19T11:59:55;96692.81;;;20.39;46.05
49943;BME280;36011;53.362;58.948;2023-09-19T12:03:10;96692.38;;;20.01;47.44
49943;BME280;36011;53.362;58.948;2023-09-19T12:06:12;96696.00;;;19.84;47.42
49943;BME280;36011;53.362;58.948;2023-09-19T12:09:19;96702.50;;;19.73;47.54
49943;BME280;36011;53.362;58.948;2023-09-19T12:12:23;96706.06;;;19.64;47.56
49943;BME280;36011;53.362;58.948;2023-09-19T12:15:30;96707.03;;;19.55;47.62
49943;BME280;36011;53.362;58.948;2023-09-19T12:18:42;96705.22;;;19.55;47.87
49943;BME280;36011;53.362;58.948;2023-09-19T12:22:00;96710.91;;;19.60;48.21
49943;BME280;36011;53.362;58.948;2023-09-19T12:25:10;96677.56;;;19.30;48.21
49943;BME280;36011;53.362;58.948;2023-09-19T12:28:15;96699.75;;;19.31;48.90
49943;BME280;36011;53.362;58.948;2023-09-19T12:31:24;96707.47;;;19.16;48.68
49943;BME280;36011;53.362;58.948;2023-09-19T12:34:31;96707.53;;;18.98;49.19
49943;BME280;36011;53.362;58.948;2023-09-19T12:37:43;96711.16;;;18.89;50.04
49943;BME280;36011;53.362;58.948;2023-09-19T12:40:50;96723.56;;;18.80;50.07
49943;BME280;36011;53.362;58.948;2023-09-19T12:43:53;96714.78;;;18.70;50.74
49943;BME280;36011;53.362;58.948;2023-09-19T12:46:57;96717.59;;;18.68;50.73
49943;BME280;36011;53.362;58.948;2023-09-19T12:50:10;96717.91;;;18.65;51.82
49943;BME280;36011;53.362;58.948;2023-09-19T12:53:25;96719.53;;;18.58;52.62
49943;BME280;36011;53.362;58.948;2023-09-19T12:56:41;96725.47;;;18.52;53.30
49943;BME280;36011;53.362;58.948;2023-09-19T12:59:51;96729.63;;;18.36;53.50
49943;BME280;36011;53.362;58.948;2023-09-19T13:06:38;96729.75;;;18.17;54.34
49943;BME280;36011;53.362;58.948;2023-09-19T13:10:02;96737.44;;;18.20;54.61
49943;BME280;36011;53.362;58.948;2023-09-19T13:13:26;96736.19;;;18.24;54.50
49943;BME280;36011;53.362;58.948;2023-09-19T13:16:29;96741.50;;;18.24;54.29
49943;BME280;36011;53.362;58.948;2023-09-19T13:19:38;96736.19;;;18.24;54.64
49943;BME280;36011;53.362;58.948;2023-09-19T13:22:46;96748.88;;;18.30;54.34
49943;BME280;36011;53.362;58.948;2023-09-19T13:25:56;96746.09;;;18.32;53.75
49943;BME280;36011;53.362;58.948;2023-09-19T13:29:00;96739.31;;;18.37;53.86
49943;BME280;36011;53.362;58.948;2023-09-19T13:32:04;96746.00;;;18.42;53.67
49943;BME280;36011;53.362;58.948;2023-09-19T13:35:10;96745.69;;;18.45;53.82
49943;BME280;36011;53.362;58.948;2023-09-19T13:38:15;96753.38;;;18.48;53.81
49943;BME280;36011;53.362;58.948;2023-09-19T13:41:19;96750.72;;;18.48;54.17
49943;BME280;36011;53.362;58.948;2023-09-19T13:44:25;96744.72;;;18.46;53.60
49943;BME280;36011;53.362;58.948;2023-09-19T13:47:32;96744.78;;;18.36;53.30
49943;BME280;36011;53.362;58.948;2023-09-19T13:50:37;96743.34;;;18.24;53.36
49943;BME280;36011;53.362;58.948;2023-09-19T13:53:44;96740.91;;;18.03;53.75
49943;BME280;36011;53.362;58.948;2023-09-19T13:56:51;96743.84;;;17.82;55.00
49943;BME280;36011;53.362;58.948;2023-09-19T13:59:58;96745.91;;;17.50;55.38
49943;BME280;36011;53.362;58.948;2023-09-19T14:03:04;96747.13;;;17.19;56.85
49943;BME280;36011;53.362;58.948;2023-09-19T14:06:13;96760.16;;;16.93;58.14
49943;BME280;36011;53.362;58.948;2023-09-19T14:09:16;96769.25;;;16.71;58.55
49943;BME280;36011;53.362;58.948;2023-09-19T14:12:25;96761.44;;;16.59;59.00
49943;BME280;36011;53.362;58.948;2023-09-19T14:15:29;96762.09;;;16.61;55.14
49943;BME280;36011;53.362;58.948;2023-09-19T14:18:32;96767.56;;;16.70;50.05
49943;BME280;36011;53.362;58.948;2023-09-19T14:21:38;96767.03;;;16.76;47.30
49943;BME280;36011;53.362;58.948;2023-09-19T14:24:42;96753.75;;;16.56;46.32
49943;BME280;36011;53.362;58.948;2023-09-19T14:27:47;96772.03;;;16.40;46.46
49943;BME280;36011;53.362;58.948;2023-09-19T14:30:56;96772.28;;;16.27;45.65
49943;BME280;36011;53.362;58.948;2023-09-19T14:34:01;96767.81;;;16.18;45.24
49943;BME280;36011;53.362;58.948;2023-09-19T14:37:07;96774.16;;;15.96;45.68
49943;BME280;36011;53.362;58.948;2023-09-19T14:40:10;96778.31;;;15.79;45.65
49943;BME280;36011;53.362;58.948;2023-09-19T14:43:16;96780.19;;;15.67;45.50
49943;BME280;36011;53.362;58.948;2023-09-19T14:46:21;96786.56;;;15.55;45.72
49943;BME280;36011;53.362;58.948;2023-09-19T14:49:25;96794.16;;;15.39;46.04
49943;BME280;36011;53.362;58.948;2023-09-19T14:52:27;96789.91;;;15.26;46.31
49943;BME280;36011;53.362;58.948;2023-09-19T14:55:32;96786.81;;;15.00;46.82
49943;BME280;36011;53.362;58.948;2023-09-19T14:58:42;96799.50;;;14.86;46.96
49943;BME280;36011;53.362;58.948;2023-09-19T15:01:46;96778.94;;;14.46;47.77
49943;BME280;36011;53.362;58.948;2023-09-19T15:04:53;96803.16;;;14.52;48.02
49943;BME280;36011;53.362;58.948;2023-09-19T15:07:55;96813.28;;;14.36;48.59
49943;BME280;36011;53.362;58.948;2023-09-19T15:11:00;96812.81;;;14.20;49.04
49943;BME280;36011;53.362;58.948;2023-09-19T15:14:07;96814.41;;;14.11;49.12
49943;BME280;36011;53.362;58.948;2023-09-19T15:17:12;96824.28;;;13.98;49.66
49943;BME280;36011;53.362;58.948;2023-09-19T15:20:16;96830.66;;;13.95;49.78
49943;BME280;36011;53.362;58.948;2023-09-19T15:23:21;96812.03;;;13.74;49.63
49943;BME280;36011;53.362;58.948;2023-09-19T15:26:25;96830.53;;;13.85;49.95
49943;BME280;36011;53.362;58.948;2023-09-19T15:29:30;96839.22;;;13.76;50.26
49943;BME280;36011;53.362;58.948;2023-09-19T15:32:32;96838.47;;;13.63;50.49
49943;BME280;36011;53.362;58.948;2023-09-19T15:35:36;96843.28;;;13.58;50.70
49943;BME280;36011;53.362;58.948;2023-09-19T15:38:56;96842.31;;;13.47;51.38
49943;BME280;36011;53.362;58.948;2023-09-19T15:42:01;96841.91;;;13.30;51.76
49943;BME280;36011;53.362;58.948;2023-09-19T15:45:05;96845.22;;;13.20;52.18
49943;BME280;36011;53.362;58.948;2023-09-19T15:48:09;96842.44;;;13.11;52.60
49943;BME280;36011;53.362;58.948;2023-09-19T15:51:16;96848.16;;;13.04;53.09
49943;BME280;36011;53.362;58.948;2023-09-19T15:54:17;96845.75;;;13.01;53.51
49943;BME280;36011;53.362;58.948;2023-09-19T15:57:21;96851.88;;;13.02;53.66
49943;BME280;36011;53.362;58.948;2023-09-19T16:00:24;96857.28;;;13.00;53.89
49943;BME280;36011;53.362;58.948;2023-09-19T16:03:25;96850.53;;;12.85;54.27
49943;BME280;36011;53.362;58.948;2023-09-19T16:06:31;96863.22;;;12.80;54.93
49943;BME280;36011;53.362;58.948;2023-09-19T16:09:36;96859.78;;;12.67;55.05
49943;BME280;36011;53.362;58.948;2023-09-19T16:12:38;96871.97;;;12.56;55.43
49943;BME280;36011;53.362;58.948;2023-09-19T16:15:42;96873.38;;;12.49;55.26
49943;BME280;36011;53.362;58.948;2023-09-19T16:18:54;96878.94;;;12.57;56.19
49943;BME280;36011;53.362;58.948;2023-09-19T16:22:01;96872.19;;;12.53;56.72
49943;BME280;36011;53.362;58.948;2023-09-19T16:25:06;96887.03;;;12.43;57.10
49943;BME280;36011;53.362;58.948;2023-09-19T16:28:10;96886.59;;;12.36;57.43
49943;BME280;36011;53.362;58.948;2023-09-19T16:31:12;96879.88;;;12.32;57.79
49943;BME280;36011;53.362;58.948;2023-09-19T16:34:16;96892.31;;;12.30;58.22
49943;BME280;36011;53.362;58.948;2023-09-19T16:37:23;96894.88;;;12.32;58.55